Time;durP1;ratioP1;P1;durP2;ratioP2;P2;SDS_P1;SDS_P2;PMS_P1;PMS_P2;Temp;Humidity;BMP_temperature;BMP_pressure;BME280_temperature;BME280_humidity;BME280_pressure;Samples;Min_cycle;Max_cycle;Signal;HPM_P1;HPM_P2
2022/04/03 00:00:31;;;;;;;;;;;;;;;-1.73;66.84;99872.78;89852;1271;83440;-74
2022/04/03 00:02:47;;;;;;;;;;;;;;;-1.74;66.61;99874.41;89839;1271;98331;-75
2022/04/03 00:04:54;;;;;;;;;;;;;;;-1.77;67.00;99876.59;89849;1271;89019;-75
2022/04/03 00:07:02;;;;;;;;;;;;;;;-1.79;66.84;99878.16;89839;1271;94737;-75
2022/04/03 00:09:09;;;;;;;;;;;;;;;-1.81;66.96;99879.70;89841;1271;79420;-75
2022/04/03 00:11:16;;;;;;;;;;;;;;;-1.81;67.04;99877.27;89848;1271;82981;-75
2022/04/03 00:13:26;;;;;;;;;;;;;;;-1.82;66.99;99879.64;89836;1271;100589;-75
2022/04/03 00:15:41;;;;;;;;;;;;;;;-1.84;66.99;99878.36;89849;1271;88997;-76
2022/04/03 00:17:48;;;;;;;;;;;;;;;-1.87;67.18;99881.06;89827;1271;95230;-76
2022/04/03 00:19:59;;;;;;;;;;;;;;;-1.90;66.97;99880.95;89833;1271;79878;-77
2022/04/03 00:22:10;;;;;;;;;;;;;;;-1.93;66.73;99877.84;89868;1271;81984;-75
2022/04/03 00:24:17;;;;;;;;;;;;;;;-1.94;67.19;99883.79;89833;1271;99458;-75
2022/04/03 00:26:25;;;;;;;;;;;;;;;-1.96;67.27;99877.72;89849;1271;88135;-78
2022/04/03 00:28:31;;;;;;;;;;;;;;;-1.97;67.47;99879.80;89821;1271;95322;-79
2022/04/03 00:30:39;;;;;;;;;;;;;;;-2.01;67.08;99878.35;89851;1271;80276;-75
2022/04/03 00:32:46;;;;;;;;;;;;;;;-2.03;67.36;99881.35;89844;1271;82264;-74
2022/04/03 00:34:56;;;;;;;;;;;;;;;-2.05;67.40;99882.90;89847;1271;100331;-74
2022/04/03 00:37:07;;;;;;;;;;;;;;;-2.06;67.55;99883.02;89850;1271;88322;-78
2022/04/03 00:39:14;;;;;;;;;;;;;;;-2.09;67.59;99884.27;89833;1271;93923;-78
2022/04/03 00:41:22;;;;;;;;;;;;;;;-2.12;67.74;99883.12;89848;1271;80868;-74
2022/04/03 00:43:30;;;;;;;;;;;;;;;-2.15;67.84;99881.04;89847;1271;81214;-74
2022/04/03 00:45:37;;;;;;;;;;;;;;;-2.17;67.81;99882.98;89839;1271;100182;-74
2022/04/03 00:47:44;;;;;;;;;;;;;;;-2.19;67.64;99885.26;89845;1271;88735;-74
2022/04/03 00:49:51;;;;;;;;;;;;;;;-2.20;67.73;99884.15;89835;1271;92835;-74
2022/04/03 00:51:59;;;;;;;;;;;;;;;-2.22;67.82;99889.22;89848;1271;78304;-79
2022/04/03 00:54:06;;;;;;;;;;;;;;;-2.24;67.87;99885.34;89850;1271;80460;-79
2022/04/03 00:56:14;;;;;;;;;;;;;;;-2.25;68.04;99888.45;89832;1271;97544;-78
2022/04/03 00:58:24;;;;;;;;;;;;;;;-2.27;68.01;99887.31;89850;1271;87756;-78
2022/04/03 01:00:31;;;;;;;;;;;;;;;-2.29;68.26;99888.36;89851;1271;92213;-75
2022/04/03 01:02:42;;;;;;;;;;;;;;;-2.30;67.93;99885.13;89831;1271;81478;-74
2022/04/03 01:04:49;;;;;;;;;;;;;;;-2.31;68.03;99882.35;89855;1271;80626;-74
2022/04/03 01:06:58;;;;;;;;;;;;;;;-2.28;68.11;99887.94;89833;1271;99991;-75
2022/04/03 01:09:08;;;;;;;;;;;;;;;-2.28;68.25;99885.66;89846;1271;88854;-74
2022/04/03 01:11:21;;;;;;;;;;;;;;;-2.24;68.41;99884.48;89837;1271;93776;-79
2022/04/03 01:13:31;;;;;;;;;;;;;;;-2.21;68.31;99886.88;89826;1271;79975;-78
2022/04/03 01:15:41;;;;;;;;;;;;;;;-2.17;68.15;99886.17;89850;1271;80715;-78
2022/04/03 01:17:51;;;;;;;;;;;;;;;-2.13;68.37;99886.71;89833;1271;98209;-78
2022/04/03 01:20:02;;;;;;;;;;;;;;;-2.08;68.24;99887.19;89843;1271;88817;-78
2022/04/03 01:22:10;;;;;;;;;;;;;;;-2.03;68.27;99889.08;89840;1271;95393;-74
2022/04/03 01:24:23;;;;;;;;;;;;;;;-1.98;68.35;99889.38;89820;1271;79922;-74
2022/04/03 01:26:31;;;;;;;;;;;;;;;-1.93;68.34;99885.79;89800;1272;80456;-73
2022/04/03 01:28:41;;;;;;;;;;;;;;;-1.90;67.96;99884.13;89851;1271;100272;-74
2022/04/03 01:30:51;;;;;;;;;;;;;;;-1.86;68.25;99885.90;89859;1271;86207;-77
2022/04/03 01:33:01;;;;;;;;;;;;;;;-1.84;67.83;99885.96;89843;1271;93852;-78
2022/04/03 01:35:09;;;;;;;;;;;;;;;-1.85;67.76;99886.52;89848;1271;77363;-78
2022/04/03 01:37:16;;;;;;;;;;;;;;;-1.87;67.81;99886.86;89860;1271;80903;-78
2022/04/03 01:39:24;;;;;;;;;;;;;;;-1.90;67.96;99887.35;89832;1271;99625;-78
2022/04/03 01:41:31;;;;;;;;;;;;;;;-1.93;68.00;99895.02;89844;1271;88809;-75
2022/04/03 01:43:38;;;;;;;;;;;;;;;-1.96;67.70;99897.21;89813;1273;93312;-74
2022/04/03 01:45:48;;;;;;;;;;;;;;;-2.00;67.69;99897.99;89856;1271;77411;-74
2022/04/03 01:47:59;;;;;;;;;;;;;;;-2.06;67.38;99897.06;89845;1271;80831;-74
2022/04/03 01:50:07;;;;;;;;;;;;;;;-2.11;67.67;99903.70;89839;1271;97104;-74
2022/04/03 01:52:17;;;;;;;;;;;;;;;-2.16;67.78;99902.68;89839;1271;88641;-75
2022/04/03 01:54:24;;;;;;;;;;;;;;;-2.23;67.72;99902.54;89844;1271;93508;-74
2022/04/03 01:56:34;;;;;;;;;;;;;;;-2.28;67.45;99905.56;89836;1271;78740;-74
2022/04/03 01:58:41;;;;;;;;;;;;;;;-2.36;67.99;99911.14;89860;1271;83582;-75
2022/04/03 02:00:51;;;;;;;;;;;;;;;-2.40;67.77;99914.29;89837;1271;100312;-78
2022/04/03 02:02:58;;;;;;;;;;;;;;;-2.44;67.67;99914.60;89838;1271;86957;-78
2022/04/03 02:05:06;;;;;;;;;;;;;;;-2.50;67.97;99914.50;89826;1271;95635;-79
2022/04/03 02:07:13;;;;;;;;;;;;;;;-2.53;67.91;99916.66;89832;1270;79135;-74
2022/04/03 02:09:20;;;;;;;;;;;;;;;-2.57;67.95;99915.79;89857;1271;82223;-74
2022/04/03 02:11:27;;;;;;;;;;;;;;;-2.59;68.21;99922.98;89853;1271;99520;-79
2022/04/03 02:13:37;;;;;;;;;;;;;;;-2.62;68.11;99922.33;89844;1271;88875;-79
2022/04/03 02:15:47;;;;;;;;;;;;;;;-2.66;67.86;99924.24;89844;1271;93981;-75
2022/04/03 02:17:55;;;;;;;;;;;;;;;-2.68;68.03;99919.34;89846;1271;79469;-75
2022/04/03 02:20:08;;;;;;;;;;;;;;;-2.71;67.96;99920.96;89852;1271;82661;-74
2022/04/03 02:22:15;;;;;;;;;;;;;;;-2.74;67.97;99922.27;89844;1271;99381;-75
2022/04/03 02:24:23;;;;;;;;;;;;;;;-2.76;68.05;99923.27;89846;1271;88861;-74
2022/04/03 02:26:30;;;;;;;;;;;;;;;-2.78;67.79;99927.13;89848;1271;93170;-74
2022/04/03 02:28:40;;;;;;;;;;;;;;;-2.80;68.33;99926.92;89843;1271;80703;-74
2022/04/03 02:30:47;;;;;;;;;;;;;;;-2.82;68.24;99929.57;89851;1270;80520;-74
2022/04/03 02:32:54;;;;;;;;;;;;;;;-2.85;68.11;99927.16;89839;1271;99296;-74
2022/04/03 02:35:01;;;;;;;;;;;;;;;-2.88;67.95;99930.89;89853;1271;86399;-74
2022/04/03 02:37:08;;;;;;;;;;;;;;;-2.91;68.39;99927.75;89825;1271;95772;-74
2022/04/03 02:39:15;;;;;;;;;;;;;;;-2.92;68.09;99929.95;89840;1271;78838;-74
2022/04/03 02:41:22;;;;;;;;;;;;;;;-2.94;67.86;99929.63;89851;1271;81887;-74
2022/04/03 02:43:29;;;;;;;;;;;;;;;-2.97;68.10;99931.23;89842;1271;98581;-74
2022/04/03 02:45:39;;;;;;;;;;;;;;;-2.98;67.93;99931.83;89844;1271;85691;-78
2022/04/03 02:47:52;;;;;;;;;;;;;;;-3.01;68.20;99933.41;89837;1271;93089;-79
2022/04/03 02:50:00;;;;;;;;;;;;;;;-3.01;68.18;99933.11;89849;1271;78548;-78
2022/04/03 02:52:07;;;;;;;;;;;;;;;-3.04;67.99;99935.05;89862;1271;81052;-79
2022/04/03 02:54:14;;;;;;;;;;;;;;;-3.05;67.99;99932.66;89853;1271;100226;-79
2022/04/03 02:56:22;;;;;;;;;;;;;;;-3.06;68.07;99935.79;89847;1271;89162;-74
2022/04/03 02:58:32;;;;;;;;;;;;;;;-3.09;68.28;99934.23;89838;1271;95954;-74
2022/04/03 03:00:43;;;;;;;;;;;;;;;-3.11;68.04;99935.62;89811;1274;79483;-75
2022/04/03 03:02:53;;;;;;;;;;;;;;;-3.15;68.13;99936.09;89845;1271;82028;-74
2022/04/03 03:05:04;;;;;;;;;;;;;;;-3.17;67.93;99933.29;89850;1271;98381;-74
2022/04/03 03:07:12;;;;;;;;;;;;;;;-3.19;68.07;99938.33;87374;1271;3260262;-74
2022/04/03 03:09:22;;;;;;;;;;;;;;;-3.21;68.16;99937.38;89826;1271;93678;-75
2022/04/03 03:11:32;;;;;;;;;;;;;;;-3.22;68.03;99941.56;89834;1271;79013;-74
2022/04/03 03:13:39;;;;;;;;;;;;;;;-3.24;68.09;99941.16;89859;1271;82352;-75
2022/04/03 03:15:46;;;;;;;;;;;;;;;-3.27;68.14;99946.30;89842;1271;99443;-75
2022/04/03 03:17:56;;;;;;;;;;;;;;;-3.28;68.46;99947.45;89813;1272;87435;-75
2022/04/03 03:20:08;;;;;;;;;;;;;;;-3.29;68.28;99949.81;89834;1269;95042;-75
2022/04/03 03:22:19;;;;;;;;;;;;;;;-3.32;67.84;99946.90;89839;1271;80791;-78
2022/04/03 03:24:29;;;;;;;;;;;;;;;-3.36;67.91;99947.90;89860;1271;81742;-78
2022/04/03 03:26:39;;;;;;;;;;;;;;;-3.39;68.23;99946.02;89840;1271;98231;-78
2022/04/03 03:28:46;;;;;;;;;;;;;;;-3.41;68.24;99951.09;89838;1271;87693;-79
2022/04/03 03:30:57;;;;;;;;;;;;;;;-3.42;68.18;99951.34;89842;1271;94560;-78
2022/04/03 03:33:04;;;;;;;;;;;;;;;-3.43;68.21;99952.83;89853;1271;78078;-78
2022/04/03 03:35:12;;;;;;;;;;;;;;;-3.47;68.23;99950.23;89856;1271;80184;-78
2022/04/03 03:37:19;;;;;;;;;;;;;;;-3.48;68.00;99949.83;89835;1271;96879;-75
2022/04/03 03:39:27;;;;;;;;;;;;;;;-3.50;68.49;99953.85;89849;1271;88349;-75
2022/04/03 03:41:34;;;;;;;;;;;;;;;-3.52;68.17;99958.58;89837;1271;95818;-75
2022/04/03 03:43:44;;;;;;;;;;;;;;;-3.53;68.26;99966.25;89824;1271;79044;-75
2022/04/03 03:45:51;;;;;;;;;;;;;;;-3.56;68.15;99962.36;89855;1271;80074;-75
2022/04/03 03:48:01;;;;;;;;;;;;;;;-3.57;68.52;99965.77;89853;1271;99630;-75
2022/04/03 03:50:09;;;;;;;;;;;;;;;-3.58;68.26;99971.15;89851;1271;88270;-75
2022/04/03 03:52:19;;;;;;;;;;;;;;;-3.61;68.22;99969.22;89846;1271;94184;-75
2022/04/03 03:54:29;;;;;;;;;;;;;;;-3.62;68.30;99969.86;89849;1271;78376;-75
2022/04/03 03:56:36;;;;;;;;;;;;;;;-3.63;68.38;99972.77;89856;1271;83324;-75
2022/04/03 03:58:43;;;;;;;;;;;;;;;-3.65;68.37;99978.14;89846;1271;98714;-74
2022/04/03 04:00:53;;;;;;;;;;;;;;;-3.66;68.26;99981.20;89881;1270;85380;-75
2022/04/03 04:03:00;;;;;;;;;;;;;;;-3.67;68.35;99976.52;89845;1271;92710;-75
2022/04/03 04:05:11;;;;;;;;;;;;;;;-3.66;68.71;99986.69;89843;1271;80177;-75
2022/04/03 04:07:18;;;;;;;;;;;;;;;-3.67;68.53;99987.82;89853;1271;79059;-79
2022/04/03 04:09:28;;;;;;;;;;;;;;;-3.68;68.52;99987.16;89840;1271;99028;-80
2022/04/03 04:11:39;;;;;;;;;;;;;;;-3.68;68.55;99992.83;89867;1271;88861;-75
2022/04/03 04:13:48;;;;;;;;;;;;;;;-3.69;68.31;99992.55;89839;1271;93363;-75
2022/04/03 04:15:58;;;;;;;;;;;;;;;-3.70;68.59;99997.33;89838;1271;77801;-75
2022/04/03 04:18:06;;;;;;;;;;;;;;;-3.68;68.51;100000.38;89859;1271;83585;-75
2022/04/03 04:20:17;;;;;;;;;;;;;;;-3.66;68.48;100000.98;89853;1271;98605;-76
2022/04/03 04:22:25;;;;;;;;;;;;;;;-3.65;68.66;99999.59;89855;1271;86350;-75
2022/04/03 04:24:35;;;;;;;;;;;;;;;-3.62;68.50;100001.52;89840;1271;95407;-75
2022/04/03 04:26:42;;;;;;;;;;;;;;;-3.59;68.63;100004.50;89839;1271;78379;-79
2022/04/03 04:28:51;;;;;;;;;;;;;;;-3.56;68.31;100003.90;89857;1270;80529;-79
2022/04/03 04:31:01;;;;;;;;;;;;;;;-3.52;68.51;100006.27;89855;1271;96215;-74
2022/04/03 04:33:09;;;;;;;;;;;;;;;-3.47;68.75;100010.30;89859;1271;88996;-76
2022/04/03 04:35:25;;;;;;;;;;;;;;;-3.40;68.23;100007.83;89825;1271;95889;-76
2022/04/03 04:37:33;;;;;;;;;;;;;;;-3.33;68.53;100012.23;89826;1271;78555;-77
2022/04/03 04:39:44;;;;;;;;;;;;;;;-3.24;68.42;100012.27;89870;1271;80658;-76
2022/04/03 04:41:51;;;;;;;;;;;;;;;-3.15;68.21;100013.44;89862;1271;98890;-76
2022/04/03 04:44:01;;;;;;;;;;;;;;;-3.07;68.16;100013.81;89858;1271;87057;-76
2022/04/03 04:46:11;;;;;;;;;;;;;;;-2.95;67.97;100015.45;89838;1271;94906;-76
2022/04/03 04:48:18;;;;;;;;;;;;;;;-2.81;68.06;100015.09;89846;1271;80283;-76
2022/04/03 04:50:26;;;;;;;;;;;;;;;-2.61;68.13;100020.63;89857;1271;79774;-77
2022/04/03 04:52:37;;;;;;;;;;;;;;;-2.43;67.68;100014.64;89854;1271;96567;-75
2022/04/03 04:54:44;;;;;;;;;;;;;;;-2.20;67.67;100016.61;89855;1271;86659;-76
2022/04/03 04:56:51;;;;;;;;;;;;;;;-2.00;67.35;100022.40;89840;1271;94668;-75
2022/04/03 04:58:58;;;;;;;;;;;;;;;-1.79;67.19;100024.81;89845;1271;77493;-76
2022/04/03 05:01:05;;;;;;;;;;;;;;;-1.59;66.79;100027.29;89861;1271;80393;-75
2022/04/03 05:03:13;;;;;;;;;;;;;;;-1.41;66.62;100029.89;89805;1273;99560;-76
2022/04/03 05:05:21;;;;;;;;;;;;;;;-1.18;66.55;100035.77;89849;1271;88380;-76
2022/04/03 05:07:29;;;;;;;;;;;;;;;-0.91;66.12;100034.60;89843;1271;93996;-76
2022/04/03 05:09:37;;;;;;;;;;;;;;;-0.70;65.94;100036.24;89803;1272;78507;-72
2022/04/03 05:11:44;;;;;;;;;;;;;;;-0.34;65.44;100039.38;89860;1271;79215;-83
2022/04/03 05:13:54;;;;;;;;;;;;;;;-0.01;65.14;100045.08;89860;1271;99630;-79
2022/04/03 05:16:05;;;;;;;;;;;;;;;0.32;64.96;100047.85;89859;1271;88698;-82
2022/04/03 05:18:12;;;;;;;;;;;;;;;0.77;64.47;100048.77;89845;1271;93863;-82
2022/04/03 05:20:23;;;;;;;;;;;;;;;1.45;64.33;100044.86;89853;1271;79360;-83
2022/04/03 05:22:33;;;;;;;;;;;;;;;2.20;63.78;100047.75;89868;1271;82167;-76
2022/04/03 05:24:41;;;;;;;;;;;;;;;2.69;62.75;100054.55;89850;1271;99172;-76
2022/04/03 05:26:48;;;;;;;;;;;;;;;3.08;62.05;100051.02;89807;1274;90673;-82
2022/04/03 05:28:56;;;;;;;;;;;;;;;3.33;61.37;100051.52;89849;1271;92437;-82
2022/04/03 05:31:06;;;;;;;;;;;;;;;3.55;60.62;100052.80;89844;1271;77778;-82
2022/04/03 05:33:14;;;;;;;;;;;;;;;3.47;59.81;100054.55;89868;1271;80989;-82
2022/04/03 05:35:24;;;;;;;;;;;;;;;3.51;59.51;100058.90;89858;1271;100174;-80
2022/04/03 05:37:31;;;;;;;;;;;;;;;4.00;58.82;100058.20;89875;1271;89141;-80
2022/04/03 05:39:42;;;;;;;;;;;;;;;4.46;58.55;100063.06;89851;1271;95000;-80
2022/04/03 05:41:55;;;;;;;;;;;;;;;4.75;57.75;100063.73;89849;1271;79339;-76
2022/04/03 05:44:03;;;;;;;;;;;;;;;5.02;57.14;100063.31;89853;1271;83036;-75
2022/04/03 05:46:11;;;;;;;;;;;;;;;4.98;56.55;100065.05;89863;1271;97420;-79
2022/04/03 05:48:20;;;;;;;;;;;;;;;4.89;56.00;100063.50;89854;1271;89329;-79
2022/04/03 05:50:28;;;;;;;;;;;;;;;4.73;55.48;100068.17;89857;1271;93540;-75
2022/04/03 05:52:43;;;;;;;;;;;;;;;4.36;55.14;100069.95;89859;1271;79042;-75
2022/04/03 05:54:50;;;;;;;;;;;;;;;4.37;54.80;100074.71;89854;1271;81834;-74
2022/04/03 05:56:57;;;;;;;;;;;;;;;4.53;54.65;100072.48;89853;1271;97912;-74
2022/04/03 05:59:04;;;;;;;;;;;;;;;4.94;54.18;100077.41;89852;1271;88650;-75
2022/04/03 06:01:12;;;;;;;;;;;;;;;5.39;54.23;100077.95;89864;1271;95767;-78
2022/04/03 06:03:19;;;;;;;;;;;;;;;5.76;54.03;100080.67;89838;1271;78669;-79
2022/04/03 06:05:30;;;;;;;;;;;;;;;6.18;53.39;100078.04;89859;1271;81640;-74
2022/04/03 06:07:37;;;;;;;;;;;;;;;6.28;53.20;100080.15;89856;1271;99031;-75
2022/04/03 06:09:44;;;;;;;;;;;;;;;6.57;52.73;100086.34;89863;1271;86253;-75
2022/04/03 06:11:52;;;;;;;;;;;;;;;6.75;52.40;100085.02;89845;1271;94344;-75
2022/04/03 06:14:01;;;;;;;;;;;;;;;6.84;51.76;100087.43;89845;1271;79253;-74
2022/04/03 06:16:12;;;;;;;;;;;;;;;6.99;51.27;100092.68;89868;1271;82419;-78
2022/04/03 06:18:20;;;;;;;;;;;;;;;6.87;50.87;100092.66;89846;1271;99805;-78
2022/04/03 06:20:27;;;;;;;;;;;;;;;6.90;50.91;100093.19;89861;1270;87266;-78
2022/04/03 06:22:34;;;;;;;;;;;;;;;7.18;50.32;100093.13;89860;1271;93166;-78
2022/04/03 06:24:41;;;;;;;;;;;;;;;7.28;49.02;100094.30;89838;1271;78261;-78
2022/04/03 06:26:51;;;;;;;;;;;;;;;7.40;48.79;100097.23;89858;1271;81149;-75
2022/04/03 06:28:59;;;;;;;;;;;;;;;7.73;48.61;100095.14;89854;1271;98562;-75
2022/04/03 06:31:09;;;;;;;;;;;;;;;7.71;47.88;100098.08;89858;1271;89387;-76
2022/04/03 06:33:18;;;;;;;;;;;;;;;8.14;48.06;100091.37;89850;1271;94861;-75
2022/04/03 06:35:28;;;;;;;;;;;;;;;8.78;47.59;100094.21;89851;1271;80119;-75
2022/04/03 06:37:35;;;;;;;;;;;;;;;9.45;46.75;100096.85;89861;1271;80076;-75
2022/04/03 06:39:45;;;;;;;;;;;;;;;10.10;45.84;100097.35;89858;1271;100092;-74
2022/04/03 06:41:53;;;;;;;;;;;;;;;10.23;45.43;100096.08;89853;1271;87632;-76
2022/04/03 06:44:00;;;;;;;;;;;;;;;10.71;45.51;100098.48;89860;1271;95144;-71
2022/04/03 06:46:10;;;;;;;;;;;;;;;11.20;44.69;100100.81;89841;1271;81211;-78
2022/04/03 06:48:17;;;;;;;;;;;;;;;11.69;44.36;100098.86;89815;1273;83073;-74
2022/04/03 06:50:24;;;;;;;;;;;;;;;11.93;43.82;100106.52;89858;1271;97888;-75
2022/04/03 06:52:32;;;;;;;;;;;;;;;12.31;43.76;100101.90;89857;1271;90121;-74
2022/04/03 06:54:39;;;;;;;;;;;;;;;12.72;42.37;100099.97;89857;1271;94614;-77
2022/04/03 06:56:47;;;;;;;;;;;;;;;12.72;41.65;100101.98;89799;1274;81103;-75
2022/04/03 06:58:55;;;;;;;;;;;;;;;13.10;41.50;100102.45;89860;1271;82694;-76
2022/04/03 07:01:05;;;;;;;;;;;;;;;13.86;40.98;100101.27;89854;1271;98849;-75
2022/04/03 07:03:16;;;;;;;;;;;;;;;14.37;40.50;100103.17;89854;1271;89011;-74
2022/04/03 07:05:23;;;;;;;;;;;;;;;14.49;39.13;100105.50;89854;1271;94580;-76
2022/04/03 07:07:33;;;;;;;;;;;;;;;14.50;38.71;100104.27;89850;1271;78846;-75
2022/04/03 07:09:43;;;;;;;;;;;;;;;14.77;38.36;100107.21;89860;1271;81470;-75
2022/04/03 07:11:50;;;;;;;;;;;;;;;15.06;38.81;100109.44;89861;1271;99574;-73
2022/04/03 07:13:57;;;;;;;;;;;;;;;15.63;37.85;100117.17;89861;1271;89260;-73
2022/04/03 07:16:05;;;;;;;;;;;;;;;15.73;37.50;100113.09;89839;1271;96015;-73
2022/04/03 07:18:15;;;;;;;;;;;;;;;15.97;37.07;100110.59;89848;1271;81000;-73
2022/04/03 07:20:23;;;;;;;;;;;;;;;15.92;35.93;100115.82;89852;1271;82721;-72
2022/04/03 07:22:33;;;;;;;;;;;;;;;16.15;35.54;100114.47;89844;1271;99373;-72
2022/04/03 07:24:40;;;;;;;;;;;;;;;16.14;35.31;100118.35;89852;1271;87676;-71
2022/04/03 07:26:50;;;;;;;;;;;;;;;16.16;34.50;100120.77;89836;1271;92774;-73
2022/04/03 07:28:57;;;;;;;;;;;;;;;16.09;33.83;100117.73;89841;1271;78776;-74
2022/04/03 07:31:04;;;;;;;;;;;;;;;16.45;34.26;100118.09;89871;1271;80501;-71
2022/04/03 07:33:11;;;;;;;;;;;;;;;17.04;34.34;100121.11;89852;1271;98593;-72
2022/04/03 07:35:18;;;;;;;;;;;;;;;17.48;33.80;100119.16;89851;1271;89649;-69
2022/04/03 07:37:26;;;;;;;;;;;;;;;17.85;33.60;100121.81;89844;1271;93990;-69
2022/04/03 07:39:33;;;;;;;;;;;;;;;17.88;32.39;100123.27;89842;1271;78617;-69
2022/04/03 07:41:41;;;;;;;;;;;;;;;17.82;31.43;100122.95;89860;1271;83333;-69
2022/04/03 07:43:51;;;;;;;;;;;;;;;17.72;30.90;100121.20;89862;1271;99803;-71
2022/04/03 07:46:02;;;;;;;;;;;;;;;17.64;31.25;100125.29;89861;1271;88234;-72
2022/04/03 07:48:12;;;;;;;;;;;;;;;17.64;31.20;100125.91;89847;1271;94831;-69
2022/04/03 07:50:23;;;;;;;;;;;;;;;17.56;30.67;100129.48;89859;1271;78571;-72
2022/04/03 07:52:30;;;;;;;;;;;;;;;17.23;30.34;100129.36;89870;1271;81462;-72
2022/04/03 07:54:38;;;;;;;;;;;;;;;16.98;29.81;100130.70;89858;1271;99134;-72
2022/04/03 07:56:48;;;;;;;;;;;;;;;16.41;30.13;100138.48;89847;1271;88647;-69
2022/04/03 07:58:55;;;;;;;;;;;;;;;16.37;30.43;100135.86;89839;1271;94657;-69
2022/04/03 08:01:05;;;;;;;;;;;;;;;16.55;30.76;100133.77;89810;1274;82952;-74
2022/04/03 08:03:16;;;;;;;;;;;;;;;16.65;30.89;100139.44;89861;1271;81480;-75
2022/04/03 08:05:26;;;;;;;;;;;;;;;17.04;30.16;100137.06;89833;1271;98687;-70
2022/04/03 08:07:41;;;;;;;;;;;;;;;17.19;29.30;100138.33;89864;1271;89428;-69
2022/04/03 08:09:49;;;;;;;;;;;;;;;16.97;29.15;100141.59;89782;1273;93330;-70
2022/04/03 08:11:59;;;;;;;;;;;;;;;17.08;29.15;100143.99;89848;1271;78354;-69
2022/04/03 08:14:09;;;;;;;;;;;;;;;16.89;29.13;100142.13;89874;1271;79637;-69
2022/04/03 08:16:17;;;;;;;;;;;;;;;17.07;29.07;100143.48;89868;1271;99369;-63
2022/04/03 08:18:25;;;;;;;;;;;;;;;17.51;28.76;100143.70;89863;1271;88785;-69
2022/04/03 08:20:32;;;;;;;;;;;;;;;17.66;28.74;100138.08;89806;1274;94884;-75
2022/04/03 08:22:40;;;;;;;;;;;;;;;17.74;28.84;100142.56;89849;1271;78840;-70
2022/04/03 08:24:48;;;;;;;;;;;;;;;18.17;28.08;100140.40;89868;1270;80643;-72
2022/04/03 08:26:56;;;;;;;;;;;;;;;18.36;27.10;100140.10;89857;1271;99280;-73
2022/04/03 08:29:03;;;;;;;;;;;;;;;18.29;27.41;100141.11;89854;1271;89097;-74
2022/04/03 08:31:10;;;;;;;;;;;;;;;18.02;27.82;100139.25;89847;1270;93431;-69
2022/04/03 08:33:17;;;;;;;;;;;;;;;17.83;27.85;100144.02;89854;1271;80496;-69
2022/04/03 08:35:27;;;;;;;;;;;;;;;17.86;27.36;100147.45;89874;1271;80666;-73
2022/04/03 08:37:35;;;;;;;;;;;;;;;18.30;27.19;100142.29;89852;1271;100140;-75
2022/04/03 08:39:45;;;;;;;;;;;;;;;18.37;27.34;100142.02;89857;1271;89641;-75
2022/04/03 08:41:52;;;;;;;;;;;;;;;18.50;27.20;100143.05;89852;1271;95470;-75
2022/04/03 08:43:59;;;;;;;;;;;;;;;18.53;26.34;100146.61;89854;1271;78358;-75
2022/04/03 08:46:09;;;;;;;;;;;;;;;18.28;26.43;100150.08;89851;1271;80874;-69
2022/04/03 08:48:18;;;;;;;;;;;;;;;18.37;26.54;100147.78;89851;1271;99329;-70
2022/04/03 08:50:29;;;;;;;;;;;;;;;18.70;26.29;100153.53;89877;1271;87606;-73
2022/04/03 08:52:39;;;;;;;;;;;;;;;18.40;26.37;100154.78;89856;1271;93690;-72
2022/04/03 08:54:46;;;;;;;;;;;;;;;18.28;26.51;100149.20;89847;1271;78788;-72
2022/04/03 08:56:54;;;;;;;;;;;;;;;18.15;26.40;100150.80;89860;1271;79723;-71
2022/04/03 08:59:02;;;;;;;;;;;;;;;18.25;26.83;100151.50;89850;1271;100316;-72
2022/04/03 09:01:09;;;;;;;;;;;;;;;18.20;26.59;100147.73;89860;1271;88687;-69
2022/04/03 09:03:16;;;;;;;;;;;;;;;18.30;26.69;100151.59;89847;1271;95244;-68
2022/04/03 09:05:23;;;;;;;;;;;;;;;18.38;26.61;100151.79;89852;1271;78415;-76
2022/04/03 09:07:33;;;;;;;;;;;;;;;17.95;26.14;100153.20;89863;1271;81364;-78
2022/04/03 09:09:40;;;;;;;;;;;;;;;16.57;26.33;100153.08;89861;1271;100112;-78
2022/04/03 09:11:47;;;;;;;;;;;;;;;15.89;26.86;100157.89;85291;1271;3012414;-75
2022/04/03 09:13:54;;;;;;;;;;;;;;;15.29;26.74;100156.02;89847;1271;95160;-76
2022/04/03 09:16:02;;;;;;;;;;;;;;;14.30;26.98;100159.13;89834;1271;80229;-76
2022/04/03 09:18:09;;;;;;;;;;;;;;;13.38;27.50;100160.81;89864;1271;81763;-77
2022/04/03 09:20:18;;;;;;;;;;;;;;;13.32;28.18;100162.95;89825;1274;99789;-75
2022/04/03 09:22:32;;;;;;;;;;;;;;;14.02;28.15;100159.20;89859;1271;87991;-75
2022/04/03 09:24:50;;;;;;;;;;;;;;;14.89;28.04;100156.67;89841;1271;95807;-74
2022/04/03 09:27:02;;;;;;;;;;;;;;;15.71;27.66;100157.24;89839;1271;77631;-75
2022/04/03 09:29:14;;;;;;;;;;;;;;;15.56;27.08;100157.36;89871;1271;82877;-75
2022/04/03 09:31:30;;;;;;;;;;;;;;;14.42;27.17;100162.77;89856;1271;99719;-75
2022/04/03 09:33:41;;;;;;;;;;;;;;;13.29;27.68;100169.49;89852;1271;88335;-75
2022/04/03 09:35:59;;;;;;;;;;;;;;;12.49;28.30;100170.84;89854;1271;93538;-70
2022/04/03 09:38:11;;;;;;;;;;;;;;;12.80;28.79;100169.48;89848;1270;78385;-70
2022/04/03 09:40:29;;;;;;;;;;;;;;;13.22;28.64;100166.16;89873;1271;80099;-71
2022/04/03 09:42:39;;;;;;;;;;;;;;;13.45;28.81;100166.73;89858;1271;99595;-69
2022/04/03 09:44:49;;;;;;;;;;;;;;;13.40;28.58;100170.20;89866;1271;87663;-70
2022/04/03 09:47:13;;;;;;;;;;;;;;;13.43;28.32;100162.89;89850;1271;95030;-70
2022/04/03 09:49:26;;;;;;;;;;;;;;;13.63;28.70;100165.12;89804;1273;81026;-69
2022/04/03 09:51:34;;;;;;;;;;;;;;;13.14;28.57;100166.25;89872;1271;80815;-70
2022/04/03 09:53:45;;;;;;;;;;;;;;;12.60;28.90;100173.09;89851;1271;99933;-70
2022/04/03 09:55:56;;;;;;;;;;;;;;;11.81;29.20;100179.45;89854;1271;88411;-77
2022/04/03 09:58:07;;;;;;;;;;;;;;;11.26;29.59;100179.05;89837;1271;95618;-77
2022/04/03 10:00:28;;;;;;;;;;;;;;;11.06;30.21;100174.77;89840;1271;80997;-78
2022/04/03 10:02:38;;;;;;;;;;;;;;;11.27;30.28;100180.35;89858;1271;83060;-78
2022/04/03 10:04:46;;;;;;;;;;;;;;;10.90;30.01;100186.46;89847;1271;99803;-79
2022/04/03 10:06:53;;;;;;;;;;;;;;;10.68;30.01;100188.94;89809;1274;89475;-70
2022/04/03 10:09:01;;;;;;;;;;;;;;;10.63;30.02;100184.91;89843;1271;93012;-70
2022/04/03 10:11:09;;;;;;;;;;;;;;;10.64;30.11;100181.51;89846;1271;78038;-70
2022/04/03 10:13:20;;;;;;;;;;;;;;;10.44;29.74;100177.19;89864;1271;82855;-70
2022/04/03 10:15:28;;;;;;;;;;;;;;;10.02;30.11;100182.88;89851;1271;99316;-70
2022/04/03 10:17:36;;;;;;;;;;;;;;;10.32;30.72;100182.23;89848;1271;88151;-70
2022/04/03 10:19:46;;;;;;;;;;;;;;;10.42;30.91;100186.98;89842;1270;94394;-70
2022/04/03 10:21:58;;;;;;;;;;;;;;;10.39;30.66;100187.27;89856;1271;78499;-78
2022/04/03 10:24:11;;;;;;;;;;;;;;;10.14;30.55;100181.98;89863;1271;80494;-79
2022/04/03 10:26:21;;;;;;;;;;;;;;;10.48;30.69;100175.90;89855;1271;100260;-70
2022/04/03 10:28:28;;;;;;;;;;;;;;;10.74;30.67;100172.41;89841;1271;87467;-70
2022/04/03 10:30:40;;;;;;;;;;;;;;;10.77;30.67;100178.79;89849;1271;92534;-78
2022/04/03 10:33:00;;;;;;;;;;;;;;;10.66;30.30;100178.84;89853;1271;80396;-77
2022/04/03 10:35:09;;;;;;;;;;;;;;;10.56;30.19;100179.66;89858;1270;82224;-77
2022/04/03 10:37:33;;;;;;;;;;;;;;;10.19;30.18;100176.15;89854;1271;97495;-77
2022/04/03 10:39:44;;;;;;;;;;;;;;;10.01;30.16;100171.61;89866;1270;87003;-77
2022/04/03 10:41:51;;;;;;;;;;;;;;;9.62;30.35;100173.33;89851;1271;94577;-78
2022/04/03 10:44:19;;;;;;;;;;;;;;;9.21;30.90;100174.05;89839;1270;78793;-79
2022/04/03 10:46:31;;;;;;;;;;;;;;;9.07;31.43;100172.27;89853;1271;80521;-77
2022/04/03 10:48:39;;;;;;;;;;;;;;;9.32;31.47;100173.45;89852;1271;99603;-76
2022/04/03 10:51:04;;;;;;;;;;;;;;;9.65;31.48;100173.39;89858;1271;85650;-70
2022/04/03 10:53:26;;;;;;;;;;;;;;;9.88;31.27;100171.67;89862;1271;94961;-70
2022/04/03 10:55:38;;;;;;;;;;;;;;;10.13;31.13;100168.60;89852;1270;77470;-70
2022/04/03 10:57:46;;;;;;;;;;;;;;;10.38;30.78;100163.83;89860;1271;79937;-68
2022/04/03 11:00:23;;;;;;;;;;;;;;;10.16;31.03;100163.31;89849;1271;100043;-70
2022/04/03 11:02:31;;;;;;;;;;;;;;;9.62;31.06;100163.10;89848;1271;89183;-69
2022/04/03 11:04:41;;;;;;;;;;;;;;;9.60;31.33;100166.23;89852;1271;93554;-66
2022/04/03 11:06:50;;;;;;;;;;;;;;;9.58;30.95;100164.35;87383;1271;3261873;-67